sensor_id;sensor_type;location;lat;lon;timestamp;pressure;altitude;pressure_sealevel;temperature
55038;BMP280;40937;53.594;10.034;2024-03-06T00:01:00;102200.78;;;5.59
55038;BMP280;40937;53.594;10.034;2024-03-06T00:03:27;102211.94;;;5.61
55038;BMP280;40937;53.594;10.034;2024-03-06T00:05:55;102198.47;;;5.47
55038;BMP280;40937;53.594;10.034;2024-03-06T00:08:23;102204.63;;;5.38
55038;BMP280;40937;53.594;10.034;2024-03-06T00:10:50;102206.28;;;5.39
55038;BMP280;40937;53.594;10.034;2024-03-06T00:13:17;102211.72;;;5.54
55038;BMP280;40937;53.594;10.034;2024-03-06T00:15:44;102217.47;;;5.66
55038;BMP280;40937;53.594;10.034;2024-03-06T00:18:11;102222.72;;;5.66
55038;BMP280;40937;53.594;10.034;2024-03-06T00:20:39;102221.06;;;5.57
55038;BMP280;40937;53.594;10.034;2024-03-06T00:23:09;102231.69;;;5.55
55038;BMP280;40937;53.594;10.034;2024-03-06T00:25:36;102227.94;;;5.58
55038;BMP280;40937;53.594;10.034;2024-03-06T00:28:04;102222.25;;;5.62
55038;BMP280;40937;53.594;10.034;2024-03-06T00:30:31;102235.19;;;5.64
55038;BMP280;40937;53.594;10.034;2024-03-06T00:32:59;102232.19;;;5.59
55038;BMP280;40937;53.594;10.034;2024-03-06T00:35:26;102229.97;;;5.38
55038;BMP280;40937;53.594;10.034;2024-03-06T00:37:54;102227.25;;;5.47
55038;BMP280;40937;53.594;10.034;2024-03-06T00:40:23;102223.81;;;5.47
55038;BMP280;40937;53.594;10.034;2024-03-06T00:42:50;102238.84;;;5.45
55038;BMP280;40937;53.594;10.034;2024-03-06T00:45:17;102242.06;;;5.39
55038;BMP280;40937;53.594;10.034;2024-03-06T00:47:44;102236.03;;;5.38
55038;BMP280;40937;53.594;10.034;2024-03-06T00:50:12;102244.84;;;5.37
55038;BMP280;40937;53.594;10.034;2024-03-06T00:52:39;102243.00;;;5.29
55038;BMP280;40937;53.594;10.034;2024-03-06T00:55:07;102243.84;;;5.30
55038;BMP280;40937;53.594;10.034;2024-03-06T00:57:36;102237.44;;;5.24
55038;BMP280;40937;53.594;10.034;2024-03-06T01:00:04;102246.00;;;5.34
55038;BMP280;40937;53.594;10.034;2024-03-06T01:02:36;102253.47;;;5.29
55038;BMP280;40937;53.594;10.034;2024-03-06T01:05:04;102251.50;;;5.23
55038;BMP280;40937;53.594;10.034;2024-03-06T01:07:33;102256.75;;;5.23
55038;BMP280;40937;53.594;10.034;2024-03-06T01:10:00;102258.22;;;5.34
55038;BMP280;40937;53.594;10.034;2024-03-06T01:12:28;102260.53;;;5.37
55038;BMP280;40937;53.594;10.034;2024-03-06T01:14:57;102264.84;;;5.46
55038;BMP280;40937;53.594;10.034;2024-03-06T01:17:24;102265.00;;;5.45
55038;BMP280;40937;53.594;10.034;2024-03-06T01:19:51;102265.94;;;5.36
55038;BMP280;40937;53.594;10.034;2024-03-06T01:22:18;102274.00;;;5.42
55038;BMP280;40937;53.594;10.034;2024-03-06T01:24:45;102270.19;;;5.37
55038;BMP280;40937;53.594;10.034;2024-03-06T01:27:17;102266.06;;;5.26
55038;BMP280;40937;53.594;10.034;2024-03-06T01:29:44;102271.31;;;5.34
55038;BMP280;40937;53.594;10.034;2024-03-06T01:32:12;102272.66;;;5.38
55038;BMP280;40937;53.594;10.034;2024-03-06T01:34:39;102272.06;;;5.44
55038;BMP280;40937;53.594;10.034;2024-03-06T01:37:07;102265.59;;;5.30
55038;BMP280;40937;53.594;10.034;2024-03-06T01:39:34;102278.41;;;5.42
55038;BMP280;40937;53.594;10.034;2024-03-06T01:42:02;102275.03;;;5.49
55038;BMP280;40937;53.594;10.034;2024-03-06T01:44:29;102281.56;;;5.53
55038;BMP280;40937;53.594;10.034;2024-03-06T01:46:57;102280.38;;;5.40
55038;BMP280;40937;53.594;10.034;2024-03-06T01:49:26;102279.56;;;5.39
55038;BMP280;40937;53.594;10.034;2024-03-06T01:51:55;102281.72;;;5.44
55038;BMP280;40937;53.594;10.034;2024-03-06T01:54:24;102281.78;;;5.34
55038;BMP280;40937;53.594;10.034;2024-03-06T01:56:51;102283.13;;;5.30
55038;BMP280;40937;53.594;10.034;2024-03-06T01:59:21;102286.38;;;5.32
55038;BMP280;40937;53.594;10.034;2024-03-06T02:01:48;102287.41;;;5.39
55038;BMP280;40937;53.594;10.034;2024-03-06T02:04:15;102289.72;;;5.42
55038;BMP280;40937;53.594;10.034;2024-03-06T02:06:46;102292.09;;;5.36
55038;BMP280;40937;53.594;10.034;2024-03-06T02:09:13;102292.59;;;5.31
55038;BMP280;40937;53.594;10.034;2024-03-06T02:11:40;102291.41;;;5.25
55038;BMP280;40937;53.594;10.034;2024-03-06T02:14:08;102292.06;;;5.27
55038;BMP280;40937;53.594;10.034;2024-03-06T02:16:36;102286.84;;;5.27
55038;BMP280;40937;53.594;10.034;2024-03-06T02:19:04;102295.56;;;5.36
55038;BMP280;40937;53.594;10.034;2024-03-06T02:21:34;102290.31;;;5.36
55038;BMP280;40937;53.594;10.034;2024-03-06T02:24:01;102289.31;;;5.37
55038;BMP280;40937;53.594;10.034;2024-03-06T02:26:28;102296.63;;;5.51
55038;BMP280;40937;53.594;10.034;2024-03-06T02:28:56;102293.69;;;5.55
55038;BMP280;40937;53.594;10.034;2024-03-06T02:31:23;102295.25;;;5.39
55038;BMP280;40937;53.594;10.034;2024-03-06T02:33:50;102299.13;;;5.35
55038;BMP280;40937;53.594;10.034;2024-03-06T02:36:17;102300.94;;;5.34
55038;BMP280;40937;53.594;10.034;2024-03-06T02:38:46;102303.34;;;5.28
55038;BMP280;40937;53.594;10.034;2024-03-06T02:41:13;102294.84;;;5.26
55038;BMP280;40937;53.594;10.034;2024-03-06T02:43:41;102305.31;;;5.26
55038;BMP280;40937;53.594;10.034;2024-03-06T02:46:09;102301.81;;;5.17
55038;BMP280;40937;53.594;10.034;2024-03-06T02:48:36;102300.97;;;5.17
55038;BMP280;40937;53.594;10.034;2024-03-06T02:51:03;102303.69;;;4.99
55038;BMP280;40937;53.594;10.034;2024-03-06T02:53:31;102298.19;;;4.92
55038;BMP280;40937;53.594;10.034;2024-03-06T02:55:59;102307.34;;;4.88
55038;BMP280;40937;53.594;10.034;2024-03-06T02:58:26;102300.25;;;4.80
55038;BMP280;40937;53.594;10.034;2024-03-06T03:00:57;102309.25;;;4.86
55038;BMP280;40937;53.594;10.034;2024-03-06T03:03:24;102307.69;;;4.93
55038;BMP280;40937;53.594;10.034;2024-03-06T03:05:52;102303.44;;;4.92
55038;BMP280;40937;53.594;10.034;2024-03-06T03:08:19;102308.72;;;5.00
55038;BMP280;40937;53.594;10.034;2024-03-06T03:10:46;102301.41;;;5.04
55038;BMP280;40937;53.594;10.034;2024-03-06T03:13:15;102300.13;;;5.08
55038;BMP280;40937;53.594;10.034;2024-03-06T03:15:42;102305.06;;;5.11
55038;BMP280;40937;53.594;10.034;2024-03-06T03:18:10;102303.72;;;4.89
55038;BMP280;40937;53.594;10.034;2024-03-06T03:20:37;102304.13;;;4.94
55038;BMP280;40937;53.594;10.034;2024-03-06T03:23:04;102299.22;;;4.99
55038;BMP280;40937;53.594;10.034;2024-03-06T03:25:32;102304.00;;;5.04
55038;BMP280;40937;53.594;10.034;2024-03-06T03:28:00;102306.13;;;5.00
55038;BMP280;40937;53.594;10.034;2024-03-06T03:30:28;102303.06;;;4.87
55038;BMP280;40937;53.594;10.034;2024-03-06T03:32:55;102302.84;;;4.98
55038;BMP280;40937;53.594;10.034;2024-03-06T03:35:23;102312.16;;;5.01
55038;BMP280;40937;53.594;10.034;2024-03-06T03:37:51;102316.56;;;5.00
55038;BMP280;40937;53.594;10.034;2024-03-06T03:40:18;102310.44;;;5.09
55038;BMP280;40937;53.594;10.034;2024-03-06T03:42:45;102312.66;;;5.04
55038;BMP280;40937;53.594;10.034;2024-03-06T03:45:13;102324.50;;;5.08
55038;BMP280;40937;53.594;10.034;2024-03-06T03:47:41;102317.00;;;5.13
55038;BMP280;40937;53.594;10.034;2024-03-06T03:50:09;102319.09;;;5.10
55038;BMP280;40937;53.594;10.034;2024-03-06T03:52:36;102324.13;;;5.03
55038;BMP280;40937;53.594;10.034;2024-03-06T03:55:07;102326.16;;;5.09
55038;BMP280;40937;53.594;10.034;2024-03-06T03:57:35;102324.75;;;4.97
55038;BMP280;40937;53.594;10.034;2024-03-06T04:00:02;102316.66;;;4.90
55038;BMP280;40937;53.594;10.034;2024-03-06T04:02:38;102322.72;;;4.91
55038;BMP280;40937;53.594;10.034;2024-03-06T04:05:07;102331.25;;;4.93
55038;BMP280;40937;53.594;10.034;2024-03-06T04:07:35;102330.13;;;4.95
55038;BMP280;40937;53.594;10.034;2024-03-06T04:10:02;102332.19;;;5.10
55038;BMP280;40937;53.594;10.034;2024-03-06T04:12:30;102334.38;;;4.96
55038;BMP280;40937;53.594;10.034;2024-03-06T04:14:57;102335.66;;;4.92
55038;BMP280;40937;53.594;10.034;2024-03-06T04:17:24;102336.63;;;4.91
55038;BMP280;40937;53.594;10.034;2024-03-06T04:19:51;102342.84;;;4.72
55038;BMP280;40937;53.594;10.034;2024-03-06T04:22:20;102341.69;;;4.75
55038;BMP280;40937;53.594;10.034;2024-03-06T04:24:48;102345.97;;;4.94
55038;BMP280;40937;53.594;10.034;2024-03-06T04:27:15;102339.81;;;4.85
55038;BMP280;40937;53.594;10.034;2024-03-06T04:29:42;102342.22;;;4.96
55038;BMP280;40937;53.594;10.034;2024-03-06T04:32:09;102341.41;;;4.96
55038;BMP280;40937;53.594;10.034;2024-03-06T04:34:37;102339.53;;;4.88
55038;BMP280;40937;53.594;10.034;2024-03-06T04:37:04;102341.91;;;4.82
55038;BMP280;40937;53.594;10.034;2024-03-06T04:39:33;102345.81;;;4.77
55038;BMP280;40937;53.594;10.034;2024-03-06T04:42:00;102345.97;;;4.76
55038;BMP280;40937;53.594;10.034;2024-03-06T04:44:27;102343.78;;;4.71
55038;BMP280;40937;53.594;10.034;2024-03-06T04:46:55;102349.31;;;4.68
55038;BMP280;40937;53.594;10.034;2024-03-06T04:49:22;102347.97;;;4.64
55038;BMP280;40937;53.594;10.034;2024-03-06T04:51:49;102354.47;;;4.60
55038;BMP280;40937;53.594;10.034;2024-03-06T04:54:16;102353.19;;;4.64
55038;BMP280;40937;53.594;10.034;2024-03-06T04:56:45;102353.41;;;4.53
55038;BMP280;40937;53.594;10.034;2024-03-06T04:59:12;102353.13;;;4.56
55038;BMP280;40937;53.594;10.034;2024-03-06T05:01:39;102355.44;;;4.59
55038;BMP280;40937;53.594;10.034;2024-03-06T05:04:06;102357.22;;;4.76
55038;BMP280;40937;53.594;10.034;2024-03-06T05:06:35;102349.75;;;4.82
55038;BMP280;40937;53.594;10.034;2024-03-06T05:09:02;102355.69;;;4.66
55038;BMP280;40937;53.594;10.034;2024-03-06T05:11:30;102368.13;;;4.54
55038;BMP280;40937;53.594;10.034;2024-03-06T05:13:59;102370.06;;;4.52
55038;BMP280;40937;53.594;10.034;2024-03-06T05:16:26;102377.78;;;4.53
55038;BMP280;40937;53.594;10.034;2024-03-06T05:18:54;102370.03;;;4.62
55038;BMP280;40937;53.594;10.034;2024-03-06T05:21:21;102380.69;;;4.68
55038;BMP280;40937;53.594;10.034;2024-03-06T05:23:49;102377.19;;;4.60
55038;BMP280;40937;53.594;10.034;2024-03-06T05:26:16;102379.16;;;4.48
55038;BMP280;40937;53.594;10.034;2024-03-06T05:28:43;102378.81;;;4.43
55038;BMP280;40937;53.594;10.034;2024-03-06T05:31:20;102388.25;;;4.44
55038;BMP280;40937;53.594;10.034;2024-03-06T05:33:49;102393.88;;;4.49
55038;BMP280;40937;53.594;10.034;2024-03-06T05:36:16;102398.59;;;4.63
55038;BMP280;40937;53.594;10.034;2024-03-06T05:38:44;102406.00;;;4.68
55038;BMP280;40937;53.594;10.034;2024-03-06T05:41:11;102409.84;;;4.46
55038;BMP280;40937;53.594;10.034;2024-03-06T05:43:38;102420.31;;;4.46
55038;BMP280;40937;53.594;10.034;2024-03-06T05:46:06;102415.41;;;4.43
55038;BMP280;40937;53.594;10.034;2024-03-06T05:48:35;102427.75;;;4.40
55038;BMP280;40937;53.594;10.034;2024-03-06T05:51:02;102429.03;;;4.36
55038;BMP280;40937;53.594;10.034;2024-03-06T05:53:29;102442.84;;;4.47
55038;BMP280;40937;53.594;10.034;2024-03-06T05:55:56;102439.94;;;4.50
55038;BMP280;40937;53.594;10.034;2024-03-06T05:58:24;102440.81;;;4.40
55038;BMP280;40937;53.594;10.034;2024-03-06T06:00:52;102444.63;;;4.46
55038;BMP280;40937;53.594;10.034;2024-03-06T06:03:19;102455.69;;;4.40
55038;BMP280;40937;53.594;10.034;2024-03-06T06:05:48;102450.50;;;4.30
55038;BMP280;40937;53.594;10.034;2024-03-06T06:08:15;102456.97;;;4.26
55038;BMP280;40937;53.594;10.034;2024-03-06T06:10:42;102455.59;;;4.22
55038;BMP280;40937;53.594;10.034;2024-03-06T06:13:09;102463.41;;;4.22
55038;BMP280;40937;53.594;10.034;2024-03-06T06:15:37;102462.31;;;4.25
55038;BMP280;40937;53.594;10.034;2024-03-06T06:18:04;102466.66;;;4.16
55038;BMP280;40937;53.594;10.034;2024-03-06T06:20:32;102464.53;;;4.29
55038;BMP280;40937;53.594;10.034;2024-03-06T06:23:01;102466.50;;;4.17
55038;BMP280;40937;53.594;10.034;2024-03-06T06:25:28;102480.09;;;4.21
55038;BMP280;40937;53.594;10.034;2024-03-06T06:27:55;102483.38;;;4.23
55038;BMP280;40937;53.594;10.034;2024-03-06T06:30:22;102478.59;;;4.18
55038;BMP280;40937;53.594;10.034;2024-03-06T06:32:50;102490.84;;;4.18
55038;BMP280;40937;53.594;10.034;2024-03-06T06:35:17;102495.31;;;4.35
55038;BMP280;40937;53.594;10.034;2024-03-06T06:37:44;102496.59;;;4.59
55038;BMP280;40937;53.594;10.034;2024-03-06T06:40:13;102497.16;;;4.53
55038;BMP280;40937;53.594;10.034;2024-03-06T06:42:44;102509.00;;;4.57
55038;BMP280;40937;53.594;10.034;2024-03-06T06:45:13;102512.78;;;4.72
55038;BMP280;40937;53.594;10.034;2024-03-06T06:47:40;102515.97;;;4.94
55038;BMP280;40937;53.594;10.034;2024-03-06T06:50:08;102521.06;;;4.86
55038;BMP280;40937;53.594;10.034;2024-03-06T06:52:35;102512.78;;;4.72
55038;BMP280;40937;53.594;10.034;2024-03-06T06:55:03;102521.28;;;4.74
55038;BMP280;40937;53.594;10.034;2024-03-06T06:57:33;102525.41;;;4.77
55038;BMP280;40937;53.594;10.034;2024-03-06T07:00:00;102527.50;;;4.73
55038;BMP280;40937;53.594;10.034;2024-03-06T07:02:28;102537.81;;;4.65
55038;BMP280;40937;53.594;10.034;2024-03-06T07:04:56;102535.59;;;4.80
55038;BMP280;40937;53.594;10.034;2024-03-06T07:07:24;102536.91;;;4.84
55038;BMP280;40937;53.594;10.034;2024-03-06T07:09:51;102544.44;;;4.69
55038;BMP280;40937;53.594;10.034;2024-03-06T07:12:19;102540.81;;;4.80
55038;BMP280;40937;53.594;10.034;2024-03-06T07:14:47;102547.94;;;4.88
55038;BMP280;40937;53.594;10.034;2024-03-06T07:17:14;102542.41;;;4.91
55038;BMP280;40937;53.594;10.034;2024-03-06T07:19:41;102543.09;;;4.93
55038;BMP280;40937;53.594;10.034;2024-03-06T07:22:09;102541.28;;;4.93
55038;BMP280;40937;53.594;10.034;2024-03-06T07:24:36;102549.13;;;4.66
55038;BMP280;40937;53.594;10.034;2024-03-06T07:27:03;102550.91;;;4.65
55038;BMP280;40937;53.594;10.034;2024-03-06T07:29:31;102550.75;;;4.67
55038;BMP280;40937;53.594;10.034;2024-03-06T07:31:59;102553.22;;;4.68
55038;BMP280;40937;53.594;10.034;2024-03-06T07:34:27;102558.28;;;4.80
55038;BMP280;40937;53.594;10.034;2024-03-06T07:36:54;102558.09;;;4.81
55038;BMP280;40937;53.594;10.034;2024-03-06T07:39:21;102561.56;;;4.82
55038;BMP280;40937;53.594;10.034;2024-03-06T07:41:49;102561.81;;;4.88
55038;BMP280;40937;53.594;10.034;2024-03-06T07:44:16;102559.34;;;4.87
55038;BMP280;40937;53.594;10.034;2024-03-06T07:46:43;102564.28;;;4.90
55038;BMP280;40937;53.594;10.034;2024-03-06T07:49:12;102563.91;;;4.85
55038;BMP280;40937;53.594;10.034;2024-03-06T07:51:39;102568.06;;;4.77
55038;BMP280;40937;53.594;10.034;2024-03-06T07:54:07;102564.50;;;4.79
55038;BMP280;40937;53.594;10.034;2024-03-06T07:56:35;102576.28;;;4.83
55038;BMP280;40937;53.594;10.034;2024-03-06T07:59:02;102569.66;;;4.88
55038;BMP280;40937;53.594;10.034;2024-03-06T08:01:30;102580.66;;;4.92
55038;BMP280;40937;53.594;10.034;2024-03-06T08:03:58;102579.78;;;5.01
55038;BMP280;40937;53.594;10.034;2024-03-06T08:06:27;102580.75;;;5.00
55038;BMP280;40937;53.594;10.034;2024-03-06T08:08:55;102573.59;;;5.02
55038;BMP280;40937;53.594;10.034;2024-03-06T08:11:22;102582.53;;;5.09
55038;BMP280;40937;53.594;10.034;2024-03-06T08:13:57;102585.72;;;5.21
55038;BMP280;40937;53.594;10.034;2024-03-06T08:16:24;102586.56;;;5.22
55038;BMP280;40937;53.594;10.034;2024-03-06T08:18:51;102588.81;;;5.34
55038;BMP280;40937;53.594;10.034;2024-03-06T08:21:18;102598.38;;;5.26
55038;BMP280;40937;53.594;10.034;2024-03-06T08:23:47;102597.50;;;5.35
55038;BMP280;40937;53.594;10.034;2024-03-06T08:26:15;102599.38;;;5.43
55038;BMP280;40937;53.594;10.034;2024-03-06T08:28:42;102599.25;;;5.44
55038;BMP280;40937;53.594;10.034;2024-03-06T08:31:09;102608.19;;;5.42
55038;BMP280;40937;53.594;10.034;2024-03-06T08:33:37;102603.22;;;5.48
55038;BMP280;40937;53.594;10.034;2024-03-06T08:36:05;102617.13;;;5.49
55038;BMP280;40937;53.594;10.034;2024-03-06T08:38:32;102614.13;;;5.62
55038;BMP280;40937;53.594;10.034;2024-03-06T08:41:00;102613.53;;;5.68
55038;BMP280;40937;53.594;10.034;2024-03-06T08:43:28;102622.84;;;5.62
55038;BMP280;40937;53.594;10.034;2024-03-06T08:45:55;102625.66;;;5.69
55038;BMP280;40937;53.594;10.034;2024-03-06T08:48:22;102620.41;;;5.69
55038;BMP280;40937;53.594;10.034;2024-03-06T08:50:49;102623.41;;;5.74
55038;BMP280;40937;53.594;10.034;2024-03-06T08:53:17;102619.69;;;5.77
55038;BMP280;40937;53.594;10.034;2024-03-06T08:55:44;102621.56;;;5.84
55038;BMP280;40937;53.594;10.034;2024-03-06T08:58:13;102627.47;;;5.86
55038;BMP280;40937;53.594;10.034;2024-03-06T09:00:40;102626.50;;;5.87
55038;BMP280;40937;53.594;10.034;2024-03-06T09:03:08;102628.25;;;5.87
55038;BMP280;40937;53.594;10.034;2024-03-06T09:05:35;102638.00;;;5.95
55038;BMP280;40937;53.594;10.034;2024-03-06T09:08:03;102632.00;;;6.02
55038;BMP280;40937;53.594;10.034;2024-03-06T09:10:30;102637.16;;;6.12
55038;BMP280;40937;53.594;10.034;2024-03-06T09:12:57;102643.56;;;6.09
55038;BMP280;40937;53.594;10.034;2024-03-06T09:15:26;102642.75;;;6.09
55038;BMP280;40937;53.594;10.034;2024-03-06T09:17:53;102642.75;;;6.09
55038;BMP280;40937;53.594;10.034;2024-03-06T09:20:21;102643.88;;;6.15
55038;BMP280;40937;53.594;10.034;2024-03-06T09:22:50;102640.19;;;6.25
55038;BMP280;40937;53.594;10.034;2024-03-06T09:25:20;102647.97;;;6.35
55038;BMP280;40937;53.594;10.034;2024-03-06T09:27:47;102652.84;;;6.48
55038;BMP280;40937;53.594;10.034;2024-03-06T09:30:15;102660.59;;;6.40
55038;BMP280;40937;53.594;10.034;2024-03-06T09:32:44;102660.94;;;6.37
55038;BMP280;40937;53.594;10.034;2024-03-06T09:35:11;102662.28;;;6.41
55038;BMP280;40937;53.594;10.034;2024-03-06T09:37:40;102658.09;;;6.48
55038;BMP280;40937;53.594;10.034;2024-03-06T09:40:10;102658.78;;;6.58
55038;BMP280;40937;53.594;10.034;2024-03-06T09:42:38;102665.56;;;6.69
55038;BMP280;40937;53.594;10.034;2024-03-06T09:45:06;102655.47;;;6.74
55038;BMP280;40937;53.594;10.034;2024-03-06T09:47:35;102662.19;;;6.77
55038;BMP280;40937;53.594;10.034;2024-03-06T09:50:08;102659.56;;;6.85
55038;BMP280;40937;53.594;10.034;2024-03-06T09:52:36;102660.41;;;6.85
55038;BMP280;40937;53.594;10.034;2024-03-06T09:55:06;102659.56;;;6.85
55038;BMP280;40937;53.594;10.034;2024-03-06T09:57:35;102667.78;;;6.82
55038;BMP280;40937;53.594;10.034;2024-03-06T10:00:04;102671.28;;;6.91
55038;BMP280;40937;53.594;10.034;2024-03-06T10:02:39;102676.69;;;6.97
55038;BMP280;40937;53.594;10.034;2024-03-06T10:05:22;102672.28;;;6.98
55038;BMP280;40937;53.594;10.034;2024-03-06T10:07:50;102672.13;;;6.99
55038;BMP280;40937;53.594;10.034;2024-03-06T10:10:19;102675.72;;;6.98
55038;BMP280;40937;53.594;10.034;2024-03-06T10:12:46;102677.88;;;7.03
55038;BMP280;40937;53.594;10.034;2024-03-06T10:15:14;102686.38;;;7.05
55038;BMP280;40937;53.594;10.034;2024-03-06T10:17:42;102679.53;;;7.04
55038;BMP280;40937;53.594;10.034;2024-03-06T10:20:18;102688.09;;;7.14
55038;BMP280;40937;53.594;10.034;2024-03-06T10:22:49;102682.34;;;7.19
55038;BMP280;40937;53.594;10.034;2024-03-06T10:25:18;102688.97;;;7.31
55038;BMP280;40937;53.594;10.034;2024-03-06T10:27:45;102691.59;;;7.31
55038;BMP280;40937;53.594;10.034;2024-03-06T10:30:13;102694.75;;;7.35
55038;BMP280;40937;53.594;10.034;2024-03-06T10:32:42;102688.50;;;7.36
55038;BMP280;40937;53.594;10.034;2024-03-06T10:35:18;102699.16;;;7.34
55038;BMP280;40937;53.594;10.034;2024-03-06T10:37:45;102693.09;;;7.42
55038;BMP280;40937;53.594;10.034;2024-03-06T10:40:15;102692.78;;;7.37
55038;BMP280;40937;53.594;10.034;2024-03-06T10:42:45;102690.19;;;7.53
55038;BMP280;40937;53.594;10.034;2024-03-06T10:45:14;102682.13;;;7.55
55038;BMP280;40937;53.594;10.034;2024-03-06T10:47:46;102684.31;;;7.68
55038;BMP280;40937;53.594;10.034;2024-03-06T10:50:15;102692.03;;;7.69
55038;BMP280;40937;53.594;10.034;2024-03-06T10:52:44;102688.78;;;7.75
55038;BMP280;40937;53.594;10.034;2024-03-06T10:55:14;102684.47;;;7.83
55038;BMP280;40937;53.594;10.034;2024-03-06T10:57:42;102686.13;;;7.84
55038;BMP280;40937;53.594;10.034;2024-03-06T11:00:10;102685.81;;;7.78
55038;BMP280;40937;53.594;10.034;2024-03-06T11:02:46;102691.06;;;7.87
55038;BMP280;40937;53.594;10.034;2024-03-06T11:05:15;102687.31;;;7.97
55038;BMP280;40937;53.594;10.034;2024-03-06T11:07:42;102690.06;;;8.04
55038;BMP280;40937;53.594;10.034;2024-03-06T11:10:10;102693.03;;;8.01
55038;BMP280;40937;53.594;10.034;2024-03-06T11:12:43;102690.59;;;7.83
55038;BMP280;40937;53.594;10.034;2024-03-06T11:15:15;102694.59;;;7.45
55038;BMP280;40937;53.594;10.034;2024-03-06T11:17:43;102688.72;;;7.51
55038;BMP280;40937;53.594;10.034;2024-03-06T11:20:16;102690.06;;;7.63
55038;BMP280;40937;53.594;10.034;2024-03-06T11:23:07;102698.91;;;7.70
55038;BMP280;40937;53.594;10.034;2024-03-06T11:26:10;102693.88;;;7.85
55038;BMP280;40937;53.594;10.034;2024-03-06T11:28:40;102698.94;;;7.78
55038;BMP280;40937;53.594;10.034;2024-03-06T11:31:16;102700.91;;;7.76
55038;BMP280;40937;53.594;10.034;2024-03-06T11:33:47;102691.72;;;7.80
55038;BMP280;40937;53.594;10.034;2024-03-06T11:36:16;102698.00;;;7.88
55038;BMP280;40937;53.594;10.034;2024-03-06T11:38:50;102699.94;;;7.86
55038;BMP280;40937;53.594;10.034;2024-03-06T11:41:19;102696.97;;;7.80
55038;BMP280;40937;53.594;10.034;2024-03-06T11:43:48;102692.88;;;7.94
55038;BMP280;40937;53.594;10.034;2024-03-06T11:46:16;102700.94;;;7.93
55038;BMP280;40937;53.594;10.034;2024-03-06T11:48:51;102697.28;;;7.94
55038;BMP280;40937;53.594;10.034;2024-03-06T11:51:19;102693.38;;;7.82
55038;BMP280;40937;53.594;10.034;2024-03-06T11:53:49;102698.28;;;8.01
55038;BMP280;40937;53.594;10.034;2024-03-06T11:56:17;102703.38;;;8.11
55038;BMP280;40937;53.594;10.034;2024-03-06T11:58:45;102705.03;;;8.20
55038;BMP280;40937;53.594;10.034;2024-03-06T12:01:14;102701.56;;;8.36
55038;BMP280;40937;53.594;10.034;2024-03-06T12:03:42;102700.22;;;8.48
55038;BMP280;40937;53.594;10.034;2024-03-06T12:06:10;102702.84;;;8.56
55038;BMP280;40937;53.594;10.034;2024-03-06T12:08:38;102700.66;;;8.68
55038;BMP280;40937;53.594;10.034;2024-03-06T12:11:06;102704.91;;;8.77
55038;BMP280;40937;53.594;10.034;2024-03-06T12:13:33;102701.78;;;8.82
55038;BMP280;40937;53.594;10.034;2024-03-06T12:16:05;102700.28;;;8.88
55038;BMP280;40937;53.594;10.034;2024-03-06T12:18:34;102698.13;;;8.91
55038;BMP280;40937;53.594;10.034;2024-03-06T12:21:02;102703.69;;;8.96
55038;BMP280;40937;53.594;10.034;2024-03-06T12:23:31;102702.38;;;9.01
55038;BMP280;40937;53.594;10.034;2024-03-06T12:26:05;102708.94;;;8.96
55038;BMP280;40937;53.594;10.034;2024-03-06T12:28:35;102712.94;;;8.92
55038;BMP280;40937;53.594;10.034;2024-03-06T12:31:02;102710.28;;;9.01
55038;BMP280;40937;53.594;10.034;2024-03-06T12:33:30;102707.66;;;9.01
55038;BMP280;40937;53.594;10.034;2024-03-06T12:36:04;102711.09;;;9.01
55038;BMP280;40937;53.594;10.034;2024-03-06T12:38:32;102706.69;;;8.93
55038;BMP280;40937;53.594;10.034;2024-03-06T12:41:00;102706.25;;;8.82
55038;BMP280;40937;53.594;10.034;2024-03-06T12:43:27;102706.09;;;8.75
55038;BMP280;40937;53.594;10.034;2024-03-06T12:45:56;102713.81;;;8.76
55038;BMP280;40937;53.594;10.034;2024-03-06T12:48:24;102707.06;;;8.74
55038;BMP280;40937;53.594;10.034;2024-03-06T12:50:51;102705.09;;;8.76
55038;BMP280;40937;53.594;10.034;2024-03-06T12:53:21;102703.13;;;8.78
55038;BMP280;40937;53.594;10.034;2024-03-06T12:55:48;102704.59;;;8.81
55038;BMP280;40937;53.594;10.034;2024-03-06T12:58:16;102705.06;;;8.84
55038;BMP280;40937;53.594;10.034;2024-03-06T13:00:43;102711.03;;;8.78
55038;BMP280;40937;53.594;10.034;2024-03-06T13:03:10;102716.56;;;8.83
55038;BMP280;40937;53.594;10.034;2024-03-06T13:05:37;102714.25;;;8.88
55038;BMP280;40937;53.594;10.034;2024-03-06T13:08:05;102717.22;;;8.85
55038;BMP280;40937;53.594;10.034;2024-03-06T13:10:33;102710.53;;;8.83
55038;BMP280;40937;53.594;10.034;2024-03-06T13:13:01;102718.22;;;8.84
55038;BMP280;40937;53.594;10.034;2024-03-06T13:15:28;102712.31;;;8.90
55038;BMP280;40937;53.594;10.034;2024-03-06T13:17:55;102714.81;;;8.67
55038;BMP280;40937;53.594;10.034;2024-03-06T13:20:23;102717.50;;;8.34
55038;BMP280;40937;53.594;10.034;2024-03-06T13:22:50;102716.69;;;8.26
55038;BMP280;40937;53.594;10.034;2024-03-06T13:25:17;102726.84;;;8.45
55038;BMP280;40937;53.594;10.034;2024-03-06T13:27:46;102721.94;;;8.42
55038;BMP280;40937;53.594;10.034;2024-03-06T13:30:14;102724.91;;;8.39
55038;BMP280;40937;53.594;10.034;2024-03-06T13:32:41;102723.09;;;8.40
55038;BMP280;40937;53.594;10.034;2024-03-06T13:35:12;102718.97;;;8.53
55038;BMP280;40937;53.594;10.034;2024-03-06T13:37:39;102714.56;;;8.37
55038;BMP280;40937;53.594;10.034;2024-03-06T13:40:07;102715.38;;;8.38
55038;BMP280;40937;53.594;10.034;2024-03-06T13:42:36;102727.53;;;8.23
55038;BMP280;40937;53.594;10.034;2024-03-06T13:45:06;102726.72;;;8.22
55038;BMP280;40937;53.594;10.034;2024-03-06T13:47:37;102725.41;;;8.26
55038;BMP280;40937;53.594;10.034;2024-03-06T13:50:07;102726.56;;;8.24
55038;BMP280;40937;53.594;10.034;2024-03-06T13:52:35;102727.88;;;8.28
55038;BMP280;40937;53.594;10.034;2024-03-06T13:55:02;102725.88;;;8.22
55038;BMP280;40937;53.594;10.034;2024-03-06T13:57:31;102726.41;;;8.25
55038;BMP280;40937;53.594;10.034;2024-03-06T14:00:00;102726.53;;;8.32
55038;BMP280;40937;53.594;10.034;2024-03-06T14:02:39;102728.88;;;8.27